createdAt,value
2019-03-04T00:01:40.169Z,99099.09
2019-03-04T00:04:08.665Z,99089.95
2019-03-04T00:06:37.124Z,99078.34
2019-03-04T00:09:06.563Z,99066.69
2019-03-04T00:11:35.071Z,99058.57
2019-03-04T00:14:04.568Z,99040.23
2019-03-04T00:16:33.041Z,99030.95
2019-03-04T00:19:01.605Z,99037.05
2019-03-04T00:21:30.055Z,99043.95
2019-03-04T00:23:58.552Z,99043.75
2019-03-04T00:26:27.140Z,99036.47
2019-03-04T00:28:55.657Z,99044.27
2019-03-04T00:31:24.089Z,99050.75
2019-03-04T00:33:52.686Z,99056.39
2019-03-04T00:36:21.180Z,99046.58
2019-03-04T00:38:49.725Z,99060.96
2019-03-04T00:41:18.182Z,99062.70
2019-03-04T00:43:46.602Z,99062.89
2019-03-04T00:46:15.126Z,99068.29
2019-03-04T00:48:43.578Z,99078.30
2019-03-04T00:51:12.127Z,99087.39
2019-03-04T00:53:40.765Z,99088.95
2019-03-04T00:56:09.232Z,99099.13
2019-03-04T00:58:37.688Z,99093.41
2019-03-04T01:01:06.276Z,99093.59
2019-03-04T01:03:34.738Z,99073.12
2019-03-04T01:06:03.539Z,99068.87
2019-03-04T01:08:32.250Z,99070.51
2019-03-04T01:11:01.082Z,99062.44
2019-03-04T01:13:29.527Z,99051.50
2019-03-04T01:15:57.987Z,99060.62
2019-03-04T01:18:26.441Z,99048.69
2019-03-04T01:20:54.960Z,99044.44
2019-03-04T01:23:23.367Z,99033.09
2019-03-04T01:25:51.921Z,99028.89
2019-03-04T01:28:20.703Z,99016.58
2019-03-04T01:30:49.132Z,99011.94
2019-03-04T01:33:17.575Z,99006.90
2019-03-04T01:35:46.037Z,98990.50
2019-03-04T01:38:14.542Z,98985.93
2019-03-04T01:40:42.978Z,98976.14
2019-03-04T01:43:11.488Z,98981.18
2019-03-04T01:45:39.917Z,98963.44
2019-03-04T01:48:08.359Z,98963.82
2019-03-04T01:50:36.835Z,98957.43
2019-03-04T01:53:05.257Z,98942.22
2019-03-04T01:55:33.987Z,98922.80
2019-03-04T01:58:02.465Z,98917.13
2019-03-04T02:00:30.881Z,98915.37
2019-03-04T02:02:59.455Z,98908.59
2019-03-04T02:05:27.996Z,98896.28
2019-03-04T02:07:56.450Z,98895.49
2019-03-04T02:10:24.957Z,98899.19
2019-03-04T02:12:53.404Z,98898.30
2019-03-04T02:15:22.230Z,98897.42
2019-03-04T02:17:50.674Z,98886.20
2019-03-04T02:20:19.261Z,98895.11
2019-03-04T02:22:47.716Z,98893.85
2019-03-04T02:25:21.418Z,98882.50
2019-03-04T02:27:52.820Z,98877.45
2019-03-04T02:30:26.831Z,98872.50
2019-03-04T02:32:55.340Z,98877.84
2019-03-04T02:35:23.784Z,98856.54
2019-03-04T02:37:52.249Z,98839.27
2019-03-04T02:40:20.684Z,98844.23
2019-03-04T02:42:49.411Z,98827.56
2019-03-04T02:45:19.193Z,98826.22
2019-03-04T02:47:48.111Z,98817.02
2019-03-04T02:50:17.120Z,98805.75
2019-03-04T02:52:45.828Z,98811.84
2019-03-04T02:55:16.330Z,98802.34
2019-03-04T02:57:44.845Z,98786.71
2019-03-04T03:00:17.916Z,98791.59
2019-03-04T03:02:46.410Z,98797.89
2019-03-04T03:05:14.900Z,98778.91
2019-03-04T03:07:44.165Z,98771.64
2019-03-04T03:10:14.423Z,98759.42
2019-03-04T03:12:42.940Z,98754.84
2019-03-04T03:15:14.217Z,98742.66
2019-03-04T03:17:43.229Z,98749.20
2019-03-04T03:20:12.909Z,98737.97
2019-03-04T03:22:41.519Z,98721.17
2019-03-04T03:25:11.468Z,98729.53
2019-03-04T03:27:40.095Z,98708.98
2019-03-04T03:30:14.800Z,98721.66
2019-03-04T03:32:43.234Z,98712.84
2019-03-04T03:35:11.935Z,98696.08
2019-03-04T03:37:40.543Z,98691.80
2019-03-04T03:40:14.682Z,98691.95
2019-03-04T03:42:43.165Z,98673.92
2019-03-04T03:45:11.958Z,98686.91
2019-03-04T03:47:40.580Z,98684.31
2019-03-04T03:50:11.935Z,98679.27
2019-03-04T03:52:40.449Z,98691.49
2019-03-04T03:55:10.952Z,98689.70
2019-03-04T03:57:39.465Z,98677.98
2019-03-04T04:00:24.394Z,98664.88
2019-03-04T04:02:52.885Z,98638.63
2019-03-04T04:05:21.428Z,98645.08
2019-03-04T04:07:49.979Z,98637.02
2019-03-04T04:10:20.729Z,98636.08
2019-03-04T04:12:49.538Z,98637.27
2019-03-04T04:15:19.416Z,98631.57
2019-03-04T04:17:47.853Z,98624.31
2019-03-04T04:20:16.361Z,98613.96
2019-03-04T04:22:44.873Z,98615.94
2019-03-04T04:25:13.723Z,98610.21
2019-03-04T04:27:42.267Z,98591.13
2019-03-04T04:30:16.764Z,98591.62
2019-03-04T04:32:44.502Z,98600.13
2019-03-04T04:35:13.152Z,98593.03
2019-03-04T04:37:41.663Z,98580.94
2019-03-04T04:40:12.229Z,98572.23
2019-03-04T04:42:40.693Z,98562.23
2019-03-04T04:45:10.164Z,98549.33
2019-03-04T04:47:39.359Z,98528.87
2019-03-04T04:50:13.487Z,98501.64
2019-03-04T04:52:42.040Z,98497.87
2019-03-04T04:55:10.570Z,98516.77
2019-03-04T04:57:39.058Z,98521.87
2019-03-04T05:00:16.312Z,98503.86
2019-03-04T05:02:45.409Z,98488.63
2019-03-04T05:05:14.300Z,98478.10
2019-03-04T05:07:42.815Z,98462.49
2019-03-04T05:10:21.914Z,98454.44
2019-03-04T05:12:50.404Z,98417.58
2019-03-04T05:15:19.080Z,98434.25
2019-03-04T05:17:50.533Z,98437.47
2019-03-04T05:20:27.032Z,98417.31
2019-03-04T05:22:55.561Z,98399.16
2019-03-04T05:25:24.032Z,98388.13
2019-03-04T05:27:52.530Z,98388.89
2019-03-04T05:30:21.972Z,98392.86
2019-03-04T05:32:50.408Z,98389.92
2019-03-04T05:35:18.943Z,98378.83
2019-03-04T05:37:50.424Z,98357.66
2019-03-04T05:40:20.073Z,98352.16
2019-03-04T05:42:48.625Z,98316.68
2019-03-04T05:45:20.626Z,98302.28
2019-03-04T05:47:49.225Z,98313.88
2019-03-04T05:50:25.178Z,98321.20
2019-03-04T05:52:53.759Z,98314.97
2019-03-04T05:55:22.274Z,98319.20
2019-03-04T05:57:50.796Z,98314.17
2019-03-04T06:00:21.635Z,98299.70
2019-03-04T06:02:51.716Z,98309.95
2019-03-04T06:05:20.150Z,98300.95
2019-03-04T06:07:52.944Z,98295.16
2019-03-04T06:10:21.516Z,98289.17
2019-03-04T06:12:49.998Z,98287.27
2019-03-04T06:15:20.381Z,98278.91
2019-03-04T06:17:48.884Z,98275.53
2019-03-04T06:20:18.882Z,98253.89
2019-03-04T06:22:47.668Z,98254.00
2019-03-04T06:25:21.677Z,98241.78
2019-03-04T06:27:50.137Z,98240.34
2019-03-04T06:30:23.535Z,98244.36
2019-03-04T06:32:52.113Z,98246.77
2019-03-04T06:35:20.534Z,98239.19
2019-03-04T06:37:49.035Z,98221.91
2019-03-04T06:40:18.705Z,98196.95
2019-03-04T06:42:47.221Z,98187.97
2019-03-04T06:45:17.854Z,98161.77
2019-03-04T06:47:46.421Z,98168.28
2019-03-04T06:50:46.968Z,98175.48
2019-03-04T06:53:27.443Z,98174.77
2019-03-04T06:56:15.405Z,98160.50
2019-03-04T06:58:49.529Z,98177.75
2019-03-04T07:01:21.400Z,98159.62
2019-03-04T07:03:52.436Z,98147.88
2019-03-04T07:06:20.959Z,98150.78
2019-03-04T07:08:52.429Z,98132.73
2019-03-04T07:11:22.040Z,98149.59
2019-03-04T07:13:51.047Z,98140.81
2019-03-04T07:16:19.505Z,98125.28
2019-03-04T07:18:48.051Z,98140.91
2019-03-04T07:21:16.614Z,98148.12
2019-03-04T07:23:45.085Z,98143.22
2019-03-04T07:26:14.063Z,98141.84
2019-03-04T07:28:42.517Z,98123.34
2019-03-04T07:31:10.965Z,98120.95
2019-03-04T07:33:39.440Z,98096.67
2019-03-04T07:36:08.204Z,98092.70
2019-03-04T07:38:48.458Z,98079.47
2019-03-04T07:41:16.897Z,98067.95
2019-03-04T07:43:45.349Z,98076.66
2019-03-04T07:46:13.815Z,98056.30
2019-03-04T07:48:42.277Z,98036.42
2019-03-04T07:51:18.557Z,98038.95
2019-03-04T07:53:47.162Z,98036.34
2019-03-04T07:56:15.617Z,98021.30
2019-03-04T07:58:44.134Z,98043.19
2019-03-04T08:01:12.571Z,98040.63
2019-03-04T08:03:41.130Z,98048.77
2019-03-04T08:06:09.693Z,98029.56
2019-03-04T08:08:39.259Z,98019.45
2019-03-04T08:11:30.781Z,98020.22
2019-03-04T08:14:05.280Z,98027.67
2019-03-04T08:16:33.414Z,98087.00
2019-03-04T08:19:01.826Z,98305.67
2019-03-04T08:21:30.287Z,98261.75
2019-03-04T08:23:58.745Z,98257.36
2019-03-04T08:26:27.432Z,98246.61
2019-03-04T08:28:55.887Z,98248.68
2019-03-04T08:31:24.335Z,98251.05
2019-03-04T08:33:52.764Z,98232.73
2019-03-04T08:36:21.222Z,98236.72
2019-03-04T08:38:49.692Z,98247.76
2019-03-04T08:41:18.140Z,98212.50
2019-03-04T08:43:46.594Z,98230.80
2019-03-04T08:46:15.625Z,98232.95
2019-03-04T08:48:44.059Z,98244.02
2019-03-04T08:51:12.500Z,98207.97
2019-03-04T08:53:40.947Z,98187.80
2019-03-04T08:56:09.372Z,98197.84
2019-03-04T08:58:37.834Z,98186.13
2019-03-04T09:01:06.381Z,98207.70
2019-03-04T09:03:34.925Z,98184.44
2019-03-04T09:06:03.364Z,98204.59
2019-03-04T09:08:31.801Z,98191.16
2019-03-04T09:11:00.250Z,98203.93
2019-03-04T09:13:28.824Z,98188.86
2019-03-04T09:15:57.539Z,98186.52
2019-03-04T09:18:25.977Z,98207.56
2019-03-04T09:20:54.477Z,98218.64
2019-03-04T09:23:22.908Z,98199.92
2019-03-04T09:25:57.227Z,98207.61
2019-03-04T09:28:25.687Z,98212.70
2019-03-04T09:30:54.137Z,98231.64
2019-03-04T09:33:22.596Z,98241.06
2019-03-04T09:35:51.089Z,98232.62
2019-03-04T09:38:19.498Z,98217.77
2019-03-04T09:40:48.023Z,98209.92
2019-03-04T09:43:16.845Z,98199.03
2019-03-04T09:45:45.349Z,98195.14
2019-03-04T09:48:13.803Z,98215.94
2019-03-04T09:50:42.262Z,98167.07
2019-03-04T09:53:10.720Z,98203.95
2019-03-04T09:55:39.171Z,98211.36
2019-03-04T09:58:07.601Z,98187.41
2019-03-04T10:00:47.958Z,98170.19
2019-03-04T10:03:34.612Z,98187.09
2019-03-04T10:06:31.508Z,98140.27
2019-03-04T10:09:19.564Z,98134.28
2019-03-04T10:11:53.850Z,98161.64
2019-03-04T10:14:47.682Z,98162.52
2019-03-04T10:17:24.870Z,98164.02
2019-03-04T10:20:08.129Z,98164.27
2019-03-04T10:22:39.649Z,98163.00
2019-03-04T10:25:33.919Z,98179.64
2019-03-04T10:28:22.223Z,98174.48
2019-03-04T10:31:02.787Z,98198.22
2019-03-04T10:33:37.478Z,98192.31
2019-03-04T10:36:09.002Z,98188.34
2019-03-04T10:38:42.915Z,98210.71
2019-03-04T10:41:17.330Z,98202.52
2019-03-04T10:44:07.199Z,98207.86
2019-03-04T10:46:41.287Z,98225.11
2019-03-04T10:49:09.747Z,98187.87
2019-03-04T10:51:38.222Z,98180.04
2019-03-04T10:54:06.654Z,98215.84
2019-03-04T10:56:35.085Z,98180.34
2019-03-04T10:59:03.563Z,98194.21
2019-03-04T11:01:31.986Z,98187.97
2019-03-04T11:04:00.442Z,98172.22
2019-03-04T11:06:28.878Z,98169.92
2019-03-04T11:08:57.400Z,98174.09
2019-03-04T11:11:29.804Z,98158.89
2019-03-04T11:13:56.001Z,98157.44
2019-03-04T11:16:24.722Z,98144.90
2019-03-04T11:18:53.200Z,98144.73
2019-03-04T11:21:21.632Z,98141.47
2019-03-04T11:23:50.449Z,98154.69
2019-03-04T11:26:19.273Z,98115.63
2019-03-04T11:28:47.735Z,98140.27
2019-03-04T11:31:16.180Z,98124.95
2019-03-04T11:33:44.725Z,98149.97
2019-03-04T11:36:13.190Z,98136.86
2019-03-04T11:38:47.034Z,98134.92
2019-03-04T11:41:21.063Z,98132.08
2019-03-04T11:43:49.489Z,98136.36
2019-03-04T11:46:19.590Z,98153.95
2019-03-04T11:48:48.031Z,98149.60
2019-03-04T11:51:16.493Z,98156.77
2019-03-04T11:53:44.931Z,98216.45
2019-03-04T11:56:13.925Z,98226.34
2019-03-04T11:58:42.687Z,98222.81
2019-03-04T12:01:22.005Z,98192.36
2019-03-04T12:03:50.570Z,98214.06
2019-03-04T12:06:19.098Z,98213.91
2019-03-04T12:08:47.549Z,98193.84
2019-03-04T12:11:16.008Z,98179.16
2019-03-04T12:13:44.438Z,98190.95
2019-03-04T12:16:13.006Z,98175.10
2019-03-04T12:18:41.449Z,98171.01
2019-03-04T12:21:09.871Z,98170.42
2019-03-04T12:23:38.677Z,98162.44
2019-03-04T12:26:07.189Z,98150.13
2019-03-04T12:28:35.619Z,98163.48
2019-03-04T12:31:04.610Z,98159.16
2019-03-04T12:33:33.407Z,98152.54
2019-03-04T12:36:01.857Z,98143.09
2019-03-04T12:38:30.303Z,98152.45
2019-03-04T12:40:58.765Z,98115.50
2019-03-04T12:43:27.241Z,98128.05
2019-03-04T12:45:55.672Z,98134.09
2019-03-04T12:48:24.137Z,98122.61
2019-03-04T12:50:52.628Z,98136.42
2019-03-04T12:53:21.062Z,98150.38
2019-03-04T12:55:49.510Z,98172.02
2019-03-04T12:58:17.987Z,98228.02
2019-03-04T13:00:46.404Z,98221.90
2019-03-04T13:03:20.522Z,98246.25
2019-03-04T13:05:48.956Z,98278.39
2019-03-04T13:08:17.886Z,98274.84
2019-03-04T13:10:46.405Z,98277.75
2019-03-04T13:13:14.960Z,98289.69
2019-03-04T13:15:43.411Z,98301.52
2019-03-04T13:18:13.489Z,98308.79
2019-03-04T13:20:42.163Z,98296.17
2019-03-04T13:23:10.853Z,98314.77
2019-03-04T13:25:39.301Z,98294.66
2019-03-04T13:28:08.757Z,98281.00
2019-03-04T13:30:41.901Z,98298.05
2019-03-04T13:33:10.778Z,98300.15
2019-03-04T13:35:44.157Z,98293.73
2019-03-04T13:38:12.866Z,98294.98
2019-03-04T13:40:41.297Z,98319.97
2019-03-04T13:43:09.792Z,98312.81
2019-03-04T13:45:38.599Z,98310.56
2019-03-04T13:48:07.123Z,98317.92
2019-03-04T13:50:37.720Z,98332.31
2019-03-04T13:53:06.645Z,98338.39
2019-03-04T13:55:35.163Z,98350.06
2019-03-04T13:58:03.849Z,98345.36
2019-03-04T14:00:42.945Z,98328.00
2019-03-04T14:03:13.503Z,98359.90
2019-03-04T14:05:42.276Z,98345.26
2019-03-04T14:08:10.693Z,98357.97
2019-03-04T14:10:47.008Z,98380.54
2019-03-04T14:13:15.453Z,98374.67
2019-03-04T14:15:45.600Z,98381.93
2019-03-04T14:18:14.019Z,98377.30
2019-03-04T14:20:42.465Z,98394.56
2019-03-04T14:23:11.021Z,98390.34
2019-03-04T14:25:39.549Z,98386.75
2019-03-04T14:28:08.435Z,98400.66
2019-03-04T14:30:36.878Z,98413.76
2019-03-04T14:33:05.315Z,98412.05
2019-03-04T14:35:34.314Z,98408.73
2019-03-04T14:38:02.788Z,98416.39
2019-03-04T14:40:31.247Z,98415.98
2019-03-04T14:42:59.648Z,98426.30
2019-03-04T14:45:28.911Z,98421.02
2019-03-04T14:47:57.349Z,98419.36
2019-03-04T14:50:25.983Z,98412.91
2019-03-04T14:52:54.397Z,98440.10
2019-03-04T14:55:27.854Z,98444.53
2019-03-04T14:57:56.306Z,98449.16
2019-03-04T15:00:28.850Z,98456.59
2019-03-04T15:02:57.414Z,98465.71
2019-03-04T15:05:25.936Z,98450.55
2019-03-04T15:07:55.694Z,98452.11
2019-03-04T15:10:24.340Z,98462.23
2019-03-04T15:12:52.893Z,98462.81
2019-03-04T15:15:23.509Z,98476.63
2019-03-04T15:17:51.934Z,98465.62
2019-03-04T15:20:25.507Z,98487.05
2019-03-04T15:22:53.951Z,98483.07
2019-03-04T15:25:25.664Z,98492.25
2019-03-04T15:27:55.704Z,98507.70
2019-03-04T15:30:24.142Z,98508.37
2019-03-04T15:32:52.588Z,98495.20
2019-03-04T15:35:21.246Z,98501.47
2019-03-04T15:37:49.764Z,98502.26
2019-03-04T15:40:18.218Z,98492.34
2019-03-04T15:42:46.802Z,98521.38
2019-03-04T15:45:15.376Z,98514.33
2019-03-04T15:47:44.199Z,98505.24
2019-03-04T15:50:12.623Z,98518.56
2019-03-04T15:52:41.181Z,98517.69
2019-03-04T15:55:11.250Z,98537.66
2019-03-04T15:57:39.762Z,98542.77
2019-03-04T16:00:15.925Z,98527.06
2019-03-04T16:02:44.806Z,98526.88
2019-03-04T16:05:14.826Z,98556.05
2019-03-04T16:07:43.415Z,98558.23
2019-03-04T16:10:23.645Z,98567.89
2019-03-04T16:12:52.155Z,98554.66
2019-03-04T16:15:21.371Z,98574.92
2019-03-04T16:17:49.935Z,98586.68
2019-03-04T16:20:19.906Z,98587.62
2019-03-04T16:22:49.559Z,98599.08
2019-03-04T16:25:17.996Z,98599.22
2019-03-04T16:27:49.282Z,98602.98
2019-03-04T16:30:22.026Z,98611.39
2019-03-04T16:32:50.824Z,98615.15
2019-03-04T16:35:20.099Z,98612.13
2019-03-04T16:37:48.738Z,98621.61
2019-03-04T16:40:21.469Z,98614.97
2019-03-04T16:42:50.000Z,98630.61
2019-03-04T16:45:20.655Z,98633.97
2019-03-04T16:47:50.211Z,98639.59
2019-03-04T16:50:30.726Z,98639.49
2019-03-04T16:53:01.876Z,98664.47
2019-03-04T16:55:30.302Z,98671.59
2019-03-04T16:57:58.763Z,98667.83
2019-03-04T17:00:27.592Z,98682.50
2019-03-04T17:02:56.012Z,98695.14
2019-03-04T17:05:24.799Z,98686.64
2019-03-04T17:07:53.313Z,98685.94
2019-03-04T17:10:26.799Z,98703.30
2019-03-04T17:12:57.213Z,98709.56
2019-03-04T17:15:25.915Z,98703.47
2019-03-04T17:17:54.418Z,98713.72
2019-03-04T17:20:22.875Z,98720.77
2019-03-04T17:22:51.377Z,98719.69
2019-03-04T17:25:21.551Z,98736.42
2019-03-04T17:27:50.626Z,98741.17
2019-03-04T17:30:22.743Z,98746.22
2019-03-04T17:32:51.192Z,98747.91
2019-03-04T17:35:20.949Z,98768.50
2019-03-04T17:37:49.491Z,98771.33
2019-03-04T17:40:20.102Z,98779.41
2019-03-04T17:42:48.704Z,98791.21
2019-03-04T17:45:24.198Z,98800.41
2019-03-04T17:47:52.576Z,98806.73
2019-03-04T17:50:33.213Z,98809.55
2019-03-04T17:53:02.601Z,98801.61
2019-03-04T17:55:31.582Z,98819.23
2019-03-04T17:58:00.197Z,98829.60
2019-03-04T18:00:29.148Z,98834.85
2019-03-04T18:02:57.720Z,98839.97
2019-03-04T18:05:26.208Z,98841.44
2019-03-04T18:07:54.826Z,98831.12
2019-03-04T18:10:23.381Z,98848.50
2019-03-04T18:12:53.667Z,98852.98
2019-03-04T18:15:26.925Z,98858.31
2019-03-04T18:17:55.524Z,98854.69
2019-03-04T18:20:31.177Z,98858.05
2019-03-04T18:22:54.414Z,98870.37
2019-03-04T18:25:34.256Z,98876.90
2019-03-04T18:28:05.882Z,98876.42
2019-03-04T18:30:55.892Z,98886.82
2019-03-04T18:33:47.268Z,98881.45
2019-03-04T18:36:38.968Z,98898.53
2019-03-04T18:39:26.870Z,98901.75
2019-03-04T18:42:14.572Z,98903.54
2019-03-04T18:44:51.594Z,98908.57
2019-03-04T18:47:23.143Z,98925.13
2019-03-04T18:49:51.593Z,98926.37
2019-03-04T18:52:20.075Z,98931.12
2019-03-04T18:54:48.586Z,98927.15
2019-03-04T18:57:17.265Z,98928.19
2019-03-04T18:59:45.756Z,98943.70
2019-03-04T19:02:14.362Z,98937.06
2019-03-04T19:04:42.984Z,98923.66
2019-03-04T19:07:11.417Z,98947.51
2019-03-04T19:09:40.040Z,98940.25
2019-03-04T19:12:08.473Z,98950.25
2019-03-04T19:14:37.026Z,98935.48
2019-03-04T19:17:07.776Z,98968.09
2019-03-04T19:19:35.669Z,98948.62
2019-03-04T19:22:04.204Z,98946.41
2019-03-04T19:24:32.644Z,98947.77
2019-03-04T19:27:01.100Z,98942.36
2019-03-04T19:29:29.516Z,98956.65
2019-03-04T19:31:58.850Z,98954.66
2019-03-04T19:34:27.330Z,98958.20
2019-03-04T19:36:55.808Z,98958.20
2019-03-04T19:39:24.323Z,98971.13
2019-03-04T19:41:52.769Z,98973.30
2019-03-04T19:44:21.343Z,98981.09
2019-03-04T19:46:49.829Z,98989.00
2019-03-04T19:49:18.339Z,98984.40
2019-03-04T19:51:47.003Z,98988.14
2019-03-04T19:54:15.551Z,99004.92
2019-03-04T19:56:44.018Z,98993.43
2019-03-04T19:59:12.466Z,98989.81
2019-03-04T20:01:40.937Z,98995.95
2019-03-04T20:04:09.401Z,99003.34
2019-03-04T20:06:37.956Z,99011.95
2019-03-04T20:09:08.891Z,98997.59
2019-03-04T20:11:37.369Z,99022.73
2019-03-04T20:14:05.970Z,99025.73
2019-03-04T20:16:34.832Z,99024.48
2019-03-04T20:19:03.266Z,99029.99
2019-03-04T20:21:31.710Z,99023.11
2019-03-04T20:24:00.381Z,99032.75
2019-03-04T20:26:28.986Z,99029.88
2019-03-04T20:28:57.412Z,99036.50
2019-03-04T20:31:25.879Z,99036.25
2019-03-04T20:33:54.314Z,99038.12
2019-03-04T20:36:23.004Z,99053.64
2019-03-04T20:38:51.431Z,99048.64
2019-03-04T20:41:20.100Z,99050.13
2019-03-04T20:43:48.692Z,99051.48
2019-03-04T20:46:17.190Z,99055.74
2019-03-04T20:48:45.634Z,99054.73
2019-03-04T20:51:14.087Z,99063.49
2019-03-04T20:53:42.602Z,99064.98
2019-03-04T20:56:11.040Z,99066.95
2019-03-04T20:58:39.494Z,99062.31
2019-03-04T21:01:07.946Z,99071.69
2019-03-04T21:03:38.535Z,99070.18
2019-03-04T21:06:06.716Z,99072.43
2019-03-04T21:08:35.146Z,99071.81
2019-03-04T21:11:04.090Z,99062.89
2019-03-04T21:13:35.834Z,99075.42
2019-03-04T21:16:02.842Z,99070.67
2019-03-04T21:18:31.292Z,99084.33
2019-03-04T21:21:00.057Z,99088.83
2019-03-04T21:23:28.555Z,99090.93
2019-03-04T21:25:59.814Z,99087.58
2019-03-04T21:28:40.148Z,99104.35
2019-03-04T21:31:14.413Z,99093.75
2019-03-04T21:34:06.980Z,99096.28
2019-03-04T21:37:00.009Z,99096.55
2019-03-04T21:39:36.120Z,99105.94
2019-03-04T21:42:16.581Z,99089.66
2019-03-04T21:44:48.061Z,99115.17
2019-03-04T21:47:22.295Z,99103.31
2019-03-04T21:49:52.148Z,99102.30
2019-03-04T21:52:30.045Z,99100.53
2019-03-04T21:54:58.512Z,99114.66
2019-03-04T21:57:30.021Z,99105.54
2019-03-04T21:59:58.820Z,99092.05
2019-03-04T22:02:33.430Z,99106.28
2019-03-04T22:05:03.222Z,99113.69
2019-03-04T22:07:31.652Z,99112.29
2019-03-04T22:10:00.442Z,99102.68
2019-03-04T22:12:29.356Z,99122.70
2019-03-04T22:14:57.843Z,99104.05
2019-03-04T22:17:26.530Z,99120.67
2019-03-04T22:19:54.981Z,99128.94
2019-03-04T22:22:23.570Z,99135.45
2019-03-04T22:24:52.120Z,99136.08
2019-03-04T22:27:20.663Z,99128.41
2019-03-04T22:29:49.206Z,99123.53
2019-03-04T22:32:18.082Z,99135.05
2019-03-04T22:34:46.995Z,99133.30
2019-03-04T22:37:15.457Z,99136.03
2019-03-04T22:39:43.908Z,99134.26
2019-03-04T22:42:12.361Z,99124.13
2019-03-04T22:44:40.922Z,99127.66
2019-03-04T22:47:09.409Z,99122.63
2019-03-04T22:49:37.875Z,99112.02
2019-03-04T22:52:06.524Z,99109.89
2019-03-04T22:54:35.074Z,99122.53
2019-03-04T22:57:03.662Z,99113.03
2019-03-04T22:59:32.120Z,99108.79
2019-03-04T23:02:00.870Z,99128.43
2019-03-04T23:04:29.362Z,99121.30
2019-03-04T23:07:06.187Z,99126.05
2019-03-04T23:09:49.548Z,99125.69
2019-03-04T23:12:21.047Z,99125.42
2019-03-04T23:14:49.929Z,99129.55
2019-03-04T23:17:18.378Z,99138.56
2019-03-04T23:19:46.812Z,99134.05
2019-03-04T23:22:15.254Z,99139.20
2019-03-04T23:24:43.729Z,99138.83
2019-03-04T23:27:12.855Z,99139.94
2019-03-04T23:29:41.365Z,99137.33
2019-03-04T23:32:10.380Z,99142.31
2019-03-04T23:34:38.821Z,99142.70
2019-03-04T23:37:07.345Z,99143.81
2019-03-04T23:39:35.782Z,99160.20
2019-03-04T23:42:04.241Z,99142.55
2019-03-04T23:44:32.703Z,99155.58
2019-03-04T23:47:01.494Z,99155.70
2019-03-04T23:49:29.878Z,99161.19
2019-03-04T23:51:58.340Z,99160.09
2019-03-04T23:54:26.761Z,99168.08
2019-03-04T23:56:55.188Z,99155.83
2019-03-04T23:59:23.645Z,99167.22
